sensor_id;sensor_type;location;lat;lon;timestamp;temperature;humidity
5697;DHT22;2873;50.966;7.210;2022-07-29T00:01:49;21.80;99.90
5697;DHT22;2873;50.966;7.210;2022-07-29T00:04:14;21.80;99.90
5697;DHT22;2873;50.966;7.210;2022-07-29T00:06:40;21.70;99.90
5697;DHT22;2873;50.966;7.210;2022-07-29T00:09:06;21.70;99.90
5697;DHT22;2873;50.966;7.210;2022-07-29T00:11:32;21.90;99.90
5697;DHT22;2873;50.966;7.210;2022-07-29T00:13:58;21.70;99.90
5697;DHT22;2873;50.966;7.210;2022-07-29T00:16:23;21.60;99.90
5697;DHT22;2873;50.966;7.210;2022-07-29T00:18:49;21.70;99.90
5697;DHT22;2873;50.966;7.210;2022-07-29T00:21:14;21.80;99.90
5697;DHT22;2873;50.966;7.210;2022-07-29T00:23:40;21.70;99.90
5697;DHT22;2873;50.966;7.210;2022-07-29T00:26:06;21.70;99.90
5697;DHT22;2873;50.966;7.210;2022-07-29T00:28:31;21.70;99.90
5697;DHT22;2873;50.966;7.210;2022-07-29T00:30:57;21.60;99.90
5697;DHT22;2873;50.966;7.210;2022-07-29T00:33:22;21.70;99.90
5697;DHT22;2873;50.966;7.210;2022-07-29T00:35:48;21.70;99.90
5697;DHT22;2873;50.966;7.210;2022-07-29T00:38:16;21.70;99.90
5697;DHT22;2873;50.966;7.210;2022-07-29T00:40:43;21.60;99.90
5697;DHT22;2873;50.966;7.210;2022-07-29T00:43:09;21.60;99.90
5697;DHT22;2873;50.966;7.210;2022-07-29T00:45:35;21.60;99.90
5697;DHT22;2873;50.966;7.210;2022-07-29T00:48:02;21.50;99.90
5697;DHT22;2873;50.966;7.210;2022-07-29T00:50:28;21.60;99.90
5697;DHT22;2873;50.966;7.210;2022-07-29T00:52:54;21.60;99.90
5697;DHT22;2873;50.966;7.210;2022-07-29T00:55:20;21.60;99.90
5697;DHT22;2873;50.966;7.210;2022-07-29T00:57:46;21.60;99.90
5697;DHT22;2873;50.966;7.210;2022-07-29T01:00:22;21.60;99.90
5697;DHT22;2873;50.966;7.210;2022-07-29T01:02:48;21.60;99.90
5697;DHT22;2873;50.966;7.210;2022-07-29T01:05:15;21.50;99.90
5697;DHT22;2873;50.966;7.210;2022-07-29T01:07:41;21.50;99.90
5697;DHT22;2873;50.966;7.210;2022-07-29T01:10:09;21.40;99.90
5697;DHT22;2873;50.966;7.210;2022-07-29T01:12:36;21.40;99.90
5697;DHT22;2873;50.966;7.210;2022-07-29T01:15:04;21.40;99.90
5697;DHT22;2873;50.966;7.210;2022-07-29T01:17:59;21.30;99.90
5697;DHT22;2873;50.966;7.210;2022-07-29T01:20:58;21.30;99.90
5697;DHT22;2873;50.966;7.210;2022-07-29T01:26:52;21.30;99.90
5697;DHT22;2873;50.966;7.210;2022-07-29T01:32:20;21.20;99.90
5697;DHT22;2873;50.966;7.210;2022-07-29T01:34:54;21.20;99.90
5697;DHT22;2873;50.966;7.210;2022-07-29T01:37:38;21.20;99.90
5697;DHT22;2873;50.966;7.210;2022-07-29T01:40:11;21.20;99.90
5697;DHT22;2873;50.966;7.210;2022-07-29T01:42:45;21.20;99.90
5697;DHT22;2873;50.966;7.210;2022-07-29T01:45:43;21.20;99.90
5697;DHT22;2873;50.966;7.210;2022-07-29T01:48:27;21.20;99.90
5697;DHT22;2873;50.966;7.210;2022-07-29T01:51:07;21.20;99.90
5697;DHT22;2873;50.966;7.210;2022-07-29T01:56:32;21.10;99.90
5697;DHT22;2873;50.966;7.210;2022-07-29T01:58:59;21.20;99.90
5697;DHT22;2873;50.966;7.210;2022-07-29T02:01:26;21.20;99.90
5697;DHT22;2873;50.966;7.210;2022-07-29T02:03:53;21.10;99.90
5697;DHT22;2873;50.966;7.210;2022-07-29T02:06:21;21.20;99.90
5697;DHT22;2873;50.966;7.210;2022-07-29T02:08:49;21.20;99.90
5697;DHT22;2873;50.966;7.210;2022-07-29T02:11:15;21.20;99.90
5697;DHT22;2873;50.966;7.210;2022-07-29T02:13:42;21.20;99.90
5697;DHT22;2873;50.966;7.210;2022-07-29T02:16:09;21.20;99.90
5697;DHT22;2873;50.966;7.210;2022-07-29T02:18:37;21.20;99.90
5697;DHT22;2873;50.966;7.210;2022-07-29T02:21:04;21.20;99.90
5697;DHT22;2873;50.966;7.210;2022-07-29T02:23:31;21.20;99.90
5697;DHT22;2873;50.966;7.210;2022-07-29T02:25:59;21.10;99.90
5697;DHT22;2873;50.966;7.210;2022-07-29T02:28:27;21.40;99.90
5697;DHT22;2873;50.966;7.210;2022-07-29T02:30:55;21.20;99.90
5697;DHT22;2873;50.966;7.210;2022-07-29T02:33:24;21.20;99.90
5697;DHT22;2873;50.966;7.210;2022-07-29T02:35:51;21.10;99.90
5697;DHT22;2873;50.966;7.210;2022-07-29T02:38:18;21.10;99.90
5697;DHT22;2873;50.966;7.210;2022-07-29T02:41:10;21.10;99.90
5697;DHT22;2873;50.966;7.210;2022-07-29T02:43:37;21.00;99.90
5697;DHT22;2873;50.966;7.210;2022-07-29T02:46:07;21.00;99.90
5697;DHT22;2873;50.966;7.210;2022-07-29T02:49:16;21.00;99.90
5697;DHT22;2873;50.966;7.210;2022-07-29T02:51:53;21.00;99.90
5697;DHT22;2873;50.966;7.210;2022-07-29T02:54:30;21.00;99.90
5697;DHT22;2873;50.966;7.210;2022-07-29T02:56:59;21.00;99.90
5697;DHT22;2873;50.966;7.210;2022-07-29T02:59:27;20.70;99.90
5697;DHT22;2873;50.966;7.210;2022-07-29T03:01:57;20.90;99.90
5697;DHT22;2873;50.966;7.210;2022-07-29T03:04:25;20.90;99.90
5697;DHT22;2873;50.966;7.210;2022-07-29T03:06:52;20.90;99.90
5697;DHT22;2873;50.966;7.210;2022-07-29T03:09:18;20.90;99.90
5697;DHT22;2873;50.966;7.210;2022-07-29T03:11:45;21.00;99.90
5697;DHT22;2873;50.966;7.210;2022-07-29T03:14:11;20.90;99.90
5697;DHT22;2873;50.966;7.210;2022-07-29T03:16:37;21.10;99.90
5697;DHT22;2873;50.966;7.210;2022-07-29T03:19:04;20.90;99.90
5697;DHT22;2873;50.966;7.210;2022-07-29T03:21:30;20.90;99.90
5697;DHT22;2873;50.966;7.210;2022-07-29T03:23:56;20.90;99.90
5697;DHT22;2873;50.966;7.210;2022-07-29T03:26:21;20.90;99.90
5697;DHT22;2873;50.966;7.210;2022-07-29T03:28:47;20.90;99.90
5697;DHT22;2873;50.966;7.210;2022-07-29T03:31:12;20.80;99.90
5697;DHT22;2873;50.966;7.210;2022-07-29T03:33:38;20.80;99.90
5697;DHT22;2873;50.966;7.210;2022-07-29T03:36:03;20.90;99.90
5697;DHT22;2873;50.966;7.210;2022-07-29T03:38:30;20.70;99.90
5697;DHT22;2873;50.966;7.210;2022-07-29T03:41:03;20.70;99.90
5697;DHT22;2873;50.966;7.210;2022-07-29T03:43:32;20.70;99.90
5697;DHT22;2873;50.966;7.210;2022-07-29T03:46:00;20.60;99.90
5697;DHT22;2873;50.966;7.210;2022-07-29T03:48:28;20.70;99.90
5697;DHT22;2873;50.966;7.210;2022-07-29T03:50:56;20.70;99.90
5697;DHT22;2873;50.966;7.210;2022-07-29T03:53:22;20.80;99.90
5697;DHT22;2873;50.966;7.210;2022-07-29T03:55:54;20.70;99.90
5697;DHT22;2873;50.966;7.210;2022-07-29T03:58:21;20.60;99.90
5697;DHT22;2873;50.966;7.210;2022-07-29T04:00:48;20.70;99.90
5697;DHT22;2873;50.966;7.210;2022-07-29T04:03:14;20.70;99.90
5697;DHT22;2873;50.966;7.210;2022-07-29T04:05:40;20.70;99.90
5697;DHT22;2873;50.966;7.210;2022-07-29T04:08:06;20.70;99.90
5697;DHT22;2873;50.966;7.210;2022-07-29T04:10:31;20.90;99.90
5697;DHT22;2873;50.966;7.210;2022-07-29T04:12:58;20.70;99.90
5697;DHT22;2873;50.966;7.210;2022-07-29T04:15:24;20.80;99.90
5697;DHT22;2873;50.966;7.210;2022-07-29T04:17:50;20.80;99.90
5697;DHT22;2873;50.966;7.210;2022-07-29T04:20:15;20.80;99.90
5697;DHT22;2873;50.966;7.210;2022-07-29T04:22:41;20.60;99.90
5697;DHT22;2873;50.966;7.210;2022-07-29T04:25:07;20.70;99.90
5697;DHT22;2873;50.966;7.210;2022-07-29T04:27:33;20.60;99.90
5697;DHT22;2873;50.966;7.210;2022-07-29T04:29:58;20.70;99.90
5697;DHT22;2873;50.966;7.210;2022-07-29T04:32:25;20.60;99.90
5697;DHT22;2873;50.966;7.210;2022-07-29T04:34:50;20.40;99.90
5697;DHT22;2873;50.966;7.210;2022-07-29T04:37:16;20.70;99.90
5697;DHT22;2873;50.966;7.210;2022-07-29T04:39:42;20.60;99.90
5697;DHT22;2873;50.966;7.210;2022-07-29T04:42:07;20.50;99.90
5697;DHT22;2873;50.966;7.210;2022-07-29T04:44:33;20.60;99.90
5697;DHT22;2873;50.966;7.210;2022-07-29T04:46:58;20.50;99.90
5697;DHT22;2873;50.966;7.210;2022-07-29T04:49:24;20.60;99.90
5697;DHT22;2873;50.966;7.210;2022-07-29T04:51:50;20.70;99.90
5697;DHT22;2873;50.966;7.210;2022-07-29T04:54:15;20.70;99.90
5697;DHT22;2873;50.966;7.210;2022-07-29T04:56:41;20.50;99.90
5697;DHT22;2873;50.966;7.210;2022-07-29T04:59:07;20.50;99.90
5697;DHT22;2873;50.966;7.210;2022-07-29T05:01:33;20.50;99.90
5697;DHT22;2873;50.966;7.210;2022-07-29T05:03:58;20.50;99.90
5697;DHT22;2873;50.966;7.210;2022-07-29T05:06:24;20.60;99.90
5697;DHT22;2873;50.966;7.210;2022-07-29T05:08:49;20.60;99.90
5697;DHT22;2873;50.966;7.210;2022-07-29T05:11:15;20.80;99.90
5697;DHT22;2873;50.966;7.210;2022-07-29T05:13:40;20.60;99.90
5697;DHT22;2873;50.966;7.210;2022-07-29T05:16:08;20.80;99.90
5697;DHT22;2873;50.966;7.210;2022-07-29T05:18:33;20.70;99.90
5697;DHT22;2873;50.966;7.210;2022-07-29T05:20:59;20.60;99.90
5697;DHT22;2873;50.966;7.210;2022-07-29T05:23:24;20.60;99.90
5697;DHT22;2873;50.966;7.210;2022-07-29T05:25:50;20.70;99.90
5697;DHT22;2873;50.966;7.210;2022-07-29T05:28:15;20.70;99.90
5697;DHT22;2873;50.966;7.210;2022-07-29T05:30:42;20.70;99.90
5697;DHT22;2873;50.966;7.210;2022-07-29T05:33:09;20.80;99.90
5697;DHT22;2873;50.966;7.210;2022-07-29T05:35:35;20.80;99.90
5697;DHT22;2873;50.966;7.210;2022-07-29T05:38:03;20.90;99.90
5697;DHT22;2873;50.966;7.210;2022-07-29T05:40:28;20.90;99.90
5697;DHT22;2873;50.966;7.210;2022-07-29T05:42:54;20.90;99.90
5697;DHT22;2873;50.966;7.210;2022-07-29T05:45:20;21.00;99.90
5697;DHT22;2873;50.966;7.210;2022-07-29T05:47:45;21.00;99.90
5697;DHT22;2873;50.966;7.210;2022-07-29T05:50:11;21.00;99.90
5697;DHT22;2873;50.966;7.210;2022-07-29T05:52:37;21.10;99.90
5697;DHT22;2873;50.966;7.210;2022-07-29T05:55:02;21.10;99.90
5697;DHT22;2873;50.966;7.210;2022-07-29T05:57:30;21.20;99.90
5697;DHT22;2873;50.966;7.210;2022-07-29T05:59:56;21.20;99.90
5697;DHT22;2873;50.966;7.210;2022-07-29T06:02:21;21.20;99.90
5697;DHT22;2873;50.966;7.210;2022-07-29T06:04:47;21.40;99.90
5697;DHT22;2873;50.966;7.210;2022-07-29T06:07:13;21.40;99.90
5697;DHT22;2873;50.966;7.210;2022-07-29T06:09:39;21.40;99.90
5697;DHT22;2873;50.966;7.210;2022-07-29T06:12:05;21.50;99.90
5697;DHT22;2873;50.966;7.210;2022-07-29T06:14:30;21.50;99.90
5697;DHT22;2873;50.966;7.210;2022-07-29T06:16:57;21.70;99.90
5697;DHT22;2873;50.966;7.210;2022-07-29T06:19:22;21.60;99.90
5697;DHT22;2873;50.966;7.210;2022-07-29T06:21:48;21.60;99.90
5697;DHT22;2873;50.966;7.210;2022-07-29T06:24:14;21.60;99.90
5697;DHT22;2873;50.966;7.210;2022-07-29T06:26:41;21.70;99.90
5697;DHT22;2873;50.966;7.210;2022-07-29T06:29:07;21.70;99.90
5697;DHT22;2873;50.966;7.210;2022-07-29T06:31:33;21.80;99.90
5697;DHT22;2873;50.966;7.210;2022-07-29T06:33:59;21.80;99.90
5697;DHT22;2873;50.966;7.210;2022-07-29T06:36:25;21.90;99.90
5697;DHT22;2873;50.966;7.210;2022-07-29T06:38:50;22.00;99.90
5697;DHT22;2873;50.966;7.210;2022-07-29T06:41:16;22.10;99.90
5697;DHT22;2873;50.966;7.210;2022-07-29T06:43:43;22.20;99.90
5697;DHT22;2873;50.966;7.210;2022-07-29T06:46:14;22.10;99.90
5697;DHT22;2873;50.966;7.210;2022-07-29T06:48:41;22.30;99.90
5697;DHT22;2873;50.966;7.210;2022-07-29T06:51:08;22.40;99.90
5697;DHT22;2873;50.966;7.210;2022-07-29T06:53:34;22.50;99.90
5697;DHT22;2873;50.966;7.210;2022-07-29T06:56:01;22.50;99.90
5697;DHT22;2873;50.966;7.210;2022-07-29T06:58:28;22.50;99.90
5697;DHT22;2873;50.966;7.210;2022-07-29T07:00:53;22.60;99.90
5697;DHT22;2873;50.966;7.210;2022-07-29T07:03:19;22.80;99.90
5697;DHT22;2873;50.966;7.210;2022-07-29T07:05:46;22.90;99.90
5697;DHT22;2873;50.966;7.210;2022-07-29T07:08:12;23.00;99.90
5697;DHT22;2873;50.966;7.210;2022-07-29T07:10:38;23.00;99.90
5697;DHT22;2873;50.966;7.210;2022-07-29T07:13:05;23.20;99.90
5697;DHT22;2873;50.966;7.210;2022-07-29T07:15:30;23.30;99.90
5697;DHT22;2873;50.966;7.210;2022-07-29T07:17:56;23.40;99.90
5697;DHT22;2873;50.966;7.210;2022-07-29T07:20:23;23.40;99.90
5697;DHT22;2873;50.966;7.210;2022-07-29T07:22:49;23.50;99.90
5697;DHT22;2873;50.966;7.210;2022-07-29T07:25:15;23.60;99.90
5697;DHT22;2873;50.966;7.210;2022-07-29T07:27:43;23.60;99.90
5697;DHT22;2873;50.966;7.210;2022-07-29T07:30:08;23.70;99.90
5697;DHT22;2873;50.966;7.210;2022-07-29T07:32:34;23.70;99.90
5697;DHT22;2873;50.966;7.210;2022-07-29T07:35:00;23.70;99.90
5697;DHT22;2873;50.966;7.210;2022-07-29T07:37:26;23.80;99.90
5697;DHT22;2873;50.966;7.210;2022-07-29T07:39:52;23.90;99.90
5697;DHT22;2873;50.966;7.210;2022-07-29T07:42:19;23.90;99.90
5697;DHT22;2873;50.966;7.210;2022-07-29T07:44:44;23.90;99.90
5697;DHT22;2873;50.966;7.210;2022-07-29T07:47:14;23.90;99.90
5697;DHT22;2873;50.966;7.210;2022-07-29T07:49:40;24.00;99.90
5697;DHT22;2873;50.966;7.210;2022-07-29T07:52:06;24.00;99.90
5697;DHT22;2873;50.966;7.210;2022-07-29T07:54:31;24.10;99.90
5697;DHT22;2873;50.966;7.210;2022-07-29T07:56:57;24.10;99.90
5697;DHT22;2873;50.966;7.210;2022-07-29T07:59:23;24.20;99.90
5697;DHT22;2873;50.966;7.210;2022-07-29T08:01:49;24.30;99.90
5697;DHT22;2873;50.966;7.210;2022-07-29T08:04:15;24.30;99.90
5697;DHT22;2873;50.966;7.210;2022-07-29T08:06:41;24.30;99.90
5697;DHT22;2873;50.966;7.210;2022-07-29T08:09:07;24.40;99.90
5697;DHT22;2873;50.966;7.210;2022-07-29T08:11:33;24.30;99.90
5697;DHT22;2873;50.966;7.210;2022-07-29T08:13:58;24.50;99.90
5697;DHT22;2873;50.966;7.210;2022-07-29T08:16:26;24.50;99.90
5697;DHT22;2873;50.966;7.210;2022-07-29T08:18:52;24.50;99.90
5697;DHT22;2873;50.966;7.210;2022-07-29T08:21:22;24.50;99.90
5697;DHT22;2873;50.966;7.210;2022-07-29T08:23:48;24.60;99.90
5697;DHT22;2873;50.966;7.210;2022-07-29T08:26:41;24.60;99.90
5697;DHT22;2873;50.966;7.210;2022-07-29T08:29:07;24.70;99.90
5697;DHT22;2873;50.966;7.210;2022-07-29T08:31:32;24.70;99.90
5697;DHT22;2873;50.966;7.210;2022-07-29T08:33:58;24.70;99.90
5697;DHT22;2873;50.966;7.210;2022-07-29T08:36:25;24.70;99.90
5697;DHT22;2873;50.966;7.210;2022-07-29T08:38:52;24.90;99.90
5697;DHT22;2873;50.966;7.210;2022-07-29T08:41:19;24.70;99.90
5697;DHT22;2873;50.966;7.210;2022-07-29T08:43:45;24.70;99.90
5697;DHT22;2873;50.966;7.210;2022-07-29T08:46:11;24.70;99.90
5697;DHT22;2873;50.966;7.210;2022-07-29T08:48:37;24.80;99.90
5697;DHT22;2873;50.966;7.210;2022-07-29T08:51:04;24.90;99.90
5697;DHT22;2873;50.966;7.210;2022-07-29T08:53:32;25.00;99.90
5697;DHT22;2873;50.966;7.210;2022-07-29T08:55:58;25.00;99.90
5697;DHT22;2873;50.966;7.210;2022-07-29T08:58:25;25.10;99.90
5697;DHT22;2873;50.966;7.210;2022-07-29T09:00:53;25.10;99.90
5697;DHT22;2873;50.966;7.210;2022-07-29T09:03:22;25.20;99.90
5697;DHT22;2873;50.966;7.210;2022-07-29T09:05:49;25.30;99.90
5697;DHT22;2873;50.966;7.210;2022-07-29T09:08:16;25.30;99.90
5697;DHT22;2873;50.966;7.210;2022-07-29T09:10:42;25.30;99.90
5697;DHT22;2873;50.966;7.210;2022-07-29T09:13:08;25.30;99.90
5697;DHT22;2873;50.966;7.210;2022-07-29T09:15:34;25.40;99.90
5697;DHT22;2873;50.966;7.210;2022-07-29T09:18:00;25.30;99.90
5697;DHT22;2873;50.966;7.210;2022-07-29T09:20:26;25.30;99.90
5697;DHT22;2873;50.966;7.210;2022-07-29T09:23:13;25.40;99.90
5697;DHT22;2873;50.966;7.210;2022-07-29T09:25:40;25.40;99.90
5697;DHT22;2873;50.966;7.210;2022-07-29T09:28:16;25.40;99.90
5697;DHT22;2873;50.966;7.210;2022-07-29T09:30:53;25.40;99.90
5697;DHT22;2873;50.966;7.210;2022-07-29T09:33:20;25.50;99.90
5697;DHT22;2873;50.966;7.210;2022-07-29T09:36:05;25.60;99.90
5697;DHT22;2873;50.966;7.210;2022-07-29T09:38:31;25.60;99.90
5697;DHT22;2873;50.966;7.210;2022-07-29T09:41:01;25.60;99.90
5697;DHT22;2873;50.966;7.210;2022-07-29T09:43:27;25.60;99.90
5697;DHT22;2873;50.966;7.210;2022-07-29T09:45:52;25.70;99.90
5697;DHT22;2873;50.966;7.210;2022-07-29T09:48:23;25.70;99.90
5697;DHT22;2873;50.966;7.210;2022-07-29T09:50:49;25.70;99.90
5697;DHT22;2873;50.966;7.210;2022-07-29T09:53:37;25.80;99.90
5697;DHT22;2873;50.966;7.210;2022-07-29T09:56:05;25.70;99.90
5697;DHT22;2873;50.966;7.210;2022-07-29T09:58:31;25.70;99.90
5697;DHT22;2873;50.966;7.210;2022-07-29T10:00:59;25.70;99.90
5697;DHT22;2873;50.966;7.210;2022-07-29T10:03:25;25.80;99.90
5697;DHT22;2873;50.966;7.210;2022-07-29T10:06:07;26.00;99.90
5697;DHT22;2873;50.966;7.210;2022-07-29T10:08:34;26.10;99.90
5697;DHT22;2873;50.966;7.210;2022-07-29T10:11:09;26.10;99.90
5697;DHT22;2873;50.966;7.210;2022-07-29T10:13:36;26.10;99.90
5697;DHT22;2873;50.966;7.210;2022-07-29T10:16:02;26.20;99.90
5697;DHT22;2873;50.966;7.210;2022-07-29T10:18:28;26.40;99.90
5697;DHT22;2873;50.966;7.210;2022-07-29T10:20:54;26.60;99.90
5697;DHT22;2873;50.966;7.210;2022-07-29T10:23:21;26.80;99.90
5697;DHT22;2873;50.966;7.210;2022-07-29T10:25:46;27.00;99.90
5697;DHT22;2873;50.966;7.210;2022-07-29T10:28:12;27.20;99.90
5697;DHT22;2873;50.966;7.210;2022-07-29T10:30:39;27.30;99.90
5697;DHT22;2873;50.966;7.210;2022-07-29T10:44:05;28.10;99.90
5697;DHT22;2873;50.966;7.210;2022-07-29T10:46:39;28.20;99.90
5697;DHT22;2873;50.966;7.210;2022-07-29T10:49:25;28.20;99.90
5697;DHT22;2873;50.966;7.210;2022-07-29T10:52:06;28.30;99.90
5697;DHT22;2873;50.966;7.210;2022-07-29T10:57:22;28.40;99.90
5697;DHT22;2873;50.966;7.210;2022-07-29T11:05:04;28.40;99.90
5697;DHT22;2873;50.966;7.210;2022-07-29T11:07:31;28.50;99.90
5697;DHT22;2873;50.966;7.210;2022-07-29T11:15:09;28.80;99.90
5697;DHT22;2873;50.966;7.210;2022-07-29T11:20:32;29.00;99.90
5697;DHT22;2873;50.966;7.210;2022-07-29T11:22:58;29.00;99.90
5697;DHT22;2873;50.966;7.210;2022-07-29T11:25:24;28.90;99.90
5697;DHT22;2873;50.966;7.210;2022-07-29T11:27:51;29.00;99.90
5697;DHT22;2873;50.966;7.210;2022-07-29T11:30:18;29.20;99.90
5697;DHT22;2873;50.966;7.210;2022-07-29T11:32:44;29.30;99.90
5697;DHT22;2873;50.966;7.210;2022-07-29T11:37:36;28.90;99.90
5697;DHT22;2873;50.966;7.210;2022-07-29T11:40:10;28.90;99.90
5697;DHT22;2873;50.966;7.210;2022-07-29T11:42:37;28.90;99.90
5697;DHT22;2873;50.966;7.210;2022-07-29T11:45:03;28.80;99.90
5697;DHT22;2873;50.966;7.210;2022-07-29T11:47:38;28.90;99.90
5697;DHT22;2873;50.966;7.210;2022-07-29T11:50:06;29.20;99.90
5697;DHT22;2873;50.966;7.210;2022-07-29T11:52:40;29.20;99.90
5697;DHT22;2873;50.966;7.210;2022-07-29T11:55:11;29.30;99.90
5697;DHT22;2873;50.966;7.210;2022-07-29T11:57:55;29.60;99.90
5697;DHT22;2873;50.966;7.210;2022-07-29T12:00:27;30.10;99.90
5697;DHT22;2873;50.966;7.210;2022-07-29T12:02:53;31.10;99.90
5697;DHT22;2873;50.966;7.210;2022-07-29T12:05:19;31.80;99.90
5697;DHT22;2873;50.966;7.210;2022-07-29T12:07:46;32.30;99.80
5697;DHT22;2873;50.966;7.210;2022-07-29T12:10:12;32.70;99.60
5697;DHT22;2873;50.966;7.210;2022-07-29T12:12:38;33.10;99.30
5697;DHT22;2873;50.966;7.210;2022-07-29T12:17:37;33.70;97.20
5697;DHT22;2873;50.966;7.210;2022-07-29T12:20:04;33.80;96.10
5697;DHT22;2873;50.966;7.210;2022-07-29T12:22:34;33.90;94.80
5697;DHT22;2873;50.966;7.210;2022-07-29T12:25:08;34.10;94.80
5697;DHT22;2873;50.966;7.210;2022-07-29T12:27:35;34.10;95.20
5697;DHT22;2873;50.966;7.210;2022-07-29T12:30:10;34.20;94.90
5697;DHT22;2873;50.966;7.210;2022-07-29T12:32:41;34.30;94.40
5697;DHT22;2873;50.966;7.210;2022-07-29T12:35:15;34.30;94.90
5697;DHT22;2873;50.966;7.210;2022-07-29T12:37:42;34.30;93.70
5697;DHT22;2873;50.966;7.210;2022-07-29T12:40:11;34.10;93.30
5697;DHT22;2873;50.966;7.210;2022-07-29T12:42:38;34.10;93.00
5697;DHT22;2873;50.966;7.210;2022-07-29T12:45:05;33.90;92.70
5697;DHT22;2873;50.966;7.210;2022-07-29T12:47:31;33.50;92.00
5697;DHT22;2873;50.966;7.210;2022-07-29T12:50:12;33.40;92.30
5697;DHT22;2873;50.966;7.210;2022-07-29T12:52:39;33.30;92.20
5697;DHT22;2873;50.966;7.210;2022-07-29T12:55:05;33.30;92.40
5697;DHT22;2873;50.966;7.210;2022-07-29T12:57:31;33.30;93.00
5697;DHT22;2873;50.966;7.210;2022-07-29T13:00:04;33.20;92.70
5697;DHT22;2873;50.966;7.210;2022-07-29T13:02:33;33.30;92.90
5697;DHT22;2873;50.966;7.210;2022-07-29T13:05:01;33.00;93.20
5697;DHT22;2873;50.966;7.210;2022-07-29T13:07:31;32.50;93.80
5697;DHT22;2873;50.966;7.210;2022-07-29T13:10:19;32.00;93.20
5697;DHT22;2873;50.966;7.210;2022-07-29T13:15:28;31.20;93.60
5697;DHT22;2873;50.966;7.210;2022-07-29T13:17:54;30.90;94.20
5697;DHT22;2873;50.966;7.210;2022-07-29T13:20:24;30.70;94.30
5697;DHT22;2873;50.966;7.210;2022-07-29T13:22:50;30.50;94.00
5697;DHT22;2873;50.966;7.210;2022-07-29T13:25:24;30.60;95.50
5697;DHT22;2873;50.966;7.210;2022-07-29T13:27:49;30.50;95.60
5697;DHT22;2873;50.966;7.210;2022-07-29T13:30:15;30.50;95.50
5697;DHT22;2873;50.966;7.210;2022-07-29T13:32:41;30.60;95.20
5697;DHT22;2873;50.966;7.210;2022-07-29T13:35:08;30.60;95.00
5697;DHT22;2873;50.966;7.210;2022-07-29T13:37:35;30.60;95.00
5697;DHT22;2873;50.966;7.210;2022-07-29T13:40:04;30.60;95.00
5697;DHT22;2873;50.966;7.210;2022-07-29T13:42:29;30.70;94.50
5697;DHT22;2873;50.966;7.210;2022-07-29T13:44:55;30.70;94.80
5697;DHT22;2873;50.966;7.210;2022-07-29T13:47:21;30.80;94.70
5697;DHT22;2873;50.966;7.210;2022-07-29T13:49:48;30.80;95.20
5697;DHT22;2873;50.966;7.210;2022-07-29T13:52:13;30.90;95.20
5697;DHT22;2873;50.966;7.210;2022-07-29T13:54:39;31.10;95.30
5697;DHT22;2873;50.966;7.210;2022-07-29T13:57:05;31.30;95.40
5697;DHT22;2873;50.966;7.210;2022-07-29T13:59:31;31.30;95.10
5697;DHT22;2873;50.966;7.210;2022-07-29T14:01:56;31.40;95.40
5697;DHT22;2873;50.966;7.210;2022-07-29T14:04:22;31.60;95.30
5697;DHT22;2873;50.966;7.210;2022-07-29T14:06:51;31.70;94.70
5697;DHT22;2873;50.966;7.210;2022-07-29T14:09:17;31.60;94.50
5697;DHT22;2873;50.966;7.210;2022-07-29T14:11:43;31.70;94.80
5697;DHT22;2873;50.966;7.210;2022-07-29T14:14:08;31.60;94.30
5697;DHT22;2873;50.966;7.210;2022-07-29T14:16:35;31.60;93.70
5697;DHT22;2873;50.966;7.210;2022-07-29T14:19:01;31.70;94.10
5697;DHT22;2873;50.966;7.210;2022-07-29T14:21:26;31.50;93.90
5697;DHT22;2873;50.966;7.210;2022-07-29T14:23:52;31.40;94.60
5697;DHT22;2873;50.966;7.210;2022-07-29T14:26:20;31.40;94.40
5697;DHT22;2873;50.966;7.210;2022-07-29T14:28:46;31.40;93.90
5697;DHT22;2873;50.966;7.210;2022-07-29T14:31:12;31.20;93.90
5697;DHT22;2873;50.966;7.210;2022-07-29T14:33:37;31.30;94.40
5697;DHT22;2873;50.966;7.210;2022-07-29T14:36:03;31.30;94.50
5697;DHT22;2873;50.966;7.210;2022-07-29T14:38:29;31.40;94.10
5697;DHT22;2873;50.966;7.210;2022-07-29T14:40:54;31.40;93.90
5697;DHT22;2873;50.966;7.210;2022-07-29T14:43:20;31.50;93.80
5697;DHT22;2873;50.966;7.210;2022-07-29T14:45:45;31.60;93.80
5697;DHT22;2873;50.966;7.210;2022-07-29T14:48:11;31.60;93.90
5697;DHT22;2873;50.966;7.210;2022-07-29T14:50:37;31.60;93.80
5697;DHT22;2873;50.966;7.210;2022-07-29T14:53:03;31.70;93.20
5697;DHT22;2873;50.966;7.210;2022-07-29T14:55:29;31.80;92.80
5697;DHT22;2873;50.966;7.210;2022-07-29T14:57:54;31.60;93.00
5697;DHT22;2873;50.966;7.210;2022-07-29T15:00:20;31.50;93.20
5697;DHT22;2873;50.966;7.210;2022-07-29T15:02:47;31.40;93.50
5697;DHT22;2873;50.966;7.210;2022-07-29T15:05:13;31.30;93.70
5697;DHT22;2873;50.966;7.210;2022-07-29T15:07:38;31.20;93.90
5697;DHT22;2873;50.966;7.210;2022-07-29T15:10:04;31.10;94.00
5697;DHT22;2873;50.966;7.210;2022-07-29T15:12:31;31.10;94.30
5697;DHT22;2873;50.966;7.210;2022-07-29T15:14:57;31.00;94.20
5697;DHT22;2873;50.966;7.210;2022-07-29T15:17:22;30.90;94.10
5697;DHT22;2873;50.966;7.210;2022-07-29T15:19:48;30.90;94.70
5697;DHT22;2873;50.966;7.210;2022-07-29T15:22:14;30.80;94.90
5697;DHT22;2873;50.966;7.210;2022-07-29T15:24:39;30.90;95.10
5697;DHT22;2873;50.966;7.210;2022-07-29T15:27:05;30.80;95.10
5697;DHT22;2873;50.966;7.210;2022-07-29T15:29:30;30.80;95.10
5697;DHT22;2873;50.966;7.210;2022-07-29T15:31:56;30.70;94.80
5697;DHT22;2873;50.966;7.210;2022-07-29T15:34:22;30.80;94.70
5697;DHT22;2873;50.966;7.210;2022-07-29T15:36:50;30.60;94.60
5697;DHT22;2873;50.966;7.210;2022-07-29T15:39:16;30.50;94.60
5697;DHT22;2873;50.966;7.210;2022-07-29T15:41:41;30.50;94.20
5697;DHT22;2873;50.966;7.210;2022-07-29T15:44:07;30.50;94.20
5697;DHT22;2873;50.966;7.210;2022-07-29T15:46:33;30.50;94.20
5697;DHT22;2873;50.966;7.210;2022-07-29T15:49:17;30.40;93.70
5697;DHT22;2873;50.966;7.210;2022-07-29T15:51:43;30.30;94.40
5697;DHT22;2873;50.966;7.210;2022-07-29T15:54:08;30.30;94.30
5697;DHT22;2873;50.966;7.210;2022-07-29T15:56:34;30.30;94.70
5697;DHT22;2873;50.966;7.210;2022-07-29T15:59:00;30.20;94.60
5697;DHT22;2873;50.966;7.210;2022-07-29T16:01:25;30.10;94.70
5697;DHT22;2873;50.966;7.210;2022-07-29T16:03:51;30.00;94.80
5697;DHT22;2873;50.966;7.210;2022-07-29T16:06:17;29.90;94.50
5697;DHT22;2873;50.966;7.210;2022-07-29T16:08:43;29.90;94.80
5697;DHT22;2873;50.966;7.210;2022-07-29T16:11:09;29.80;94.90
5697;DHT22;2873;50.966;7.210;2022-07-29T16:13:34;29.80;94.70
5697;DHT22;2873;50.966;7.210;2022-07-29T16:16:00;29.70;94.70
5697;DHT22;2873;50.966;7.210;2022-07-29T16:18:26;29.60;94.90
5697;DHT22;2873;50.966;7.210;2022-07-29T16:20:51;29.60;95.00
5697;DHT22;2873;50.966;7.210;2022-07-29T16:23:17;29.60;95.30
5697;DHT22;2873;50.966;7.210;2022-07-29T16:25:42;29.60;95.30
5697;DHT22;2873;50.966;7.210;2022-07-29T16:28:08;29.60;95.30
5697;DHT22;2873;50.966;7.210;2022-07-29T16:30:35;29.60;95.10
5697;DHT22;2873;50.966;7.210;2022-07-29T16:33:01;29.50;95.50
5697;DHT22;2873;50.966;7.210;2022-07-29T16:35:27;29.40;95.30
5697;DHT22;2873;50.966;7.210;2022-07-29T16:37:57;29.30;95.20
5697;DHT22;2873;50.966;7.210;2022-07-29T16:40:23;29.20;95.60
5697;DHT22;2873;50.966;7.210;2022-07-29T16:42:49;29.10;95.70
5697;DHT22;2873;50.966;7.210;2022-07-29T16:45:15;29.20;95.90
5697;DHT22;2873;50.966;7.210;2022-07-29T16:47:41;29.10;96.00
5697;DHT22;2873;50.966;7.210;2022-07-29T16:50:07;29.10;96.20